createdAt,value
2022-10-19T00:00:48.731Z,80.71
2022-10-19T00:03:19.465Z,80.89
2022-10-19T00:05:49.788Z,80.20
2022-10-19T00:08:17.129Z,80.01
2022-10-19T00:10:44.512Z,80.12
2022-10-19T00:13:11.822Z,81.33
2022-10-19T00:15:40.481Z,81.72
2022-10-19T00:18:08.415Z,81.84
2022-10-19T00:20:36.382Z,82.37
2022-10-19T00:23:03.928Z,82.12
2022-10-19T00:25:31.352Z,81.89
2022-10-19T00:27:58.798Z,81.26
2022-10-19T00:30:26.102Z,81.29
2022-10-19T00:32:53.365Z,81.14
2022-10-19T00:35:20.610Z,81.22
2022-10-19T00:37:47.800Z,81.44
2022-10-19T00:40:15.224Z,82.22
2022-10-19T00:42:42.601Z,82.26
2022-10-19T00:45:16.896Z,81.81
2022-10-19T00:47:44.276Z,81.99
2022-10-19T00:50:11.698Z,81.60
2022-10-19T00:52:39.031Z,82.00
2022-10-19T00:55:07.156Z,81.46
2022-10-19T00:57:34.448Z,81.12
2022-10-19T01:00:01.811Z,81.10
2022-10-19T01:02:29.037Z,81.03
2022-10-19T01:04:56.409Z,81.64
2022-10-19T01:07:23.718Z,81.72
2022-10-19T01:09:51.162Z,82.02
2022-10-19T01:12:42.274Z,81.97
2022-10-19T01:15:23.797Z,82.42
2022-10-19T01:18:03.286Z,82.31
2022-10-19T01:20:58.592Z,82.73
2022-10-19T01:24:08.301Z,82.33
2022-10-19T01:27:13.275Z,82.22
2022-10-19T01:30:11.295Z,82.42
2022-10-19T01:33:00.057Z,82.26
2022-10-19T01:35:38.871Z,82.36
2022-10-19T01:38:22.300Z,82.47
2022-10-19T01:41:09.370Z,82.41
2022-10-19T01:43:45.788Z,82.45
2022-10-19T01:46:27.939Z,82.47
2022-10-19T01:48:58.823Z,82.29
2022-10-19T01:51:29.347Z,82.20
2022-10-19T01:53:58.311Z,82.05
2022-10-19T01:56:26.629Z,81.99
2022-10-19T01:58:55.186Z,81.84
2022-10-19T02:01:22.592Z,81.49
2022-10-19T02:03:50.154Z,81.11
2022-10-19T02:06:18.496Z,80.71
2022-10-19T02:08:50.074Z,80.27
2022-10-19T02:11:18.475Z,79.99
2022-10-19T02:13:46.424Z,79.46
2022-10-19T02:16:20.128Z,78.85
2022-10-19T02:18:49.044Z,78.65
2022-10-19T02:21:16.288Z,79.00
2022-10-19T02:23:44.416Z,78.55
2022-10-19T02:26:11.590Z,78.04
2022-10-19T02:28:38.853Z,77.97
2022-10-19T02:31:06.058Z,78.36
2022-10-19T02:33:33.303Z,78.36
2022-10-19T02:36:00.616Z,78.48
2022-10-19T02:38:27.926Z,78.43
2022-10-19T02:41:08.789Z,78.71
2022-10-19T02:43:37.756Z,78.31
2022-10-19T02:46:11.958Z,78.24
2022-10-19T02:48:39.332Z,78.07
2022-10-19T02:51:06.594Z,78.23
2022-10-19T02:53:33.836Z,78.30
2022-10-19T02:56:01.209Z,78.25
2022-10-19T02:58:28.523Z,78.57
2022-10-19T03:00:55.853Z,78.50
2022-10-19T03:03:23.115Z,78.57
2022-10-19T03:05:50.327Z,78.80
2022-10-19T03:08:17.995Z,78.81
2022-10-19T03:10:45.584Z,78.72
2022-10-19T03:13:13.238Z,78.89
2022-10-19T03:15:40.641Z,78.93
2022-10-19T03:18:08.166Z,78.82
2022-10-19T03:20:36.232Z,78.83
2022-10-19T03:23:03.966Z,79.02
2022-10-19T03:25:31.407Z,78.95
2022-10-19T03:27:59.513Z,79.10
2022-10-19T03:30:27.064Z,78.90
2022-10-19T03:32:54.402Z,79.01
2022-10-19T03:35:21.710Z,79.06
2022-10-19T03:37:49.053Z,78.67
2022-10-19T03:40:16.273Z,78.76
2022-10-19T03:42:43.564Z,78.89
2022-10-19T03:45:11.011Z,78.85
2022-10-19T03:47:38.261Z,78.50
2022-10-19T03:50:06.233Z,78.61
2022-10-19T03:52:33.532Z,78.44
2022-10-19T03:55:00.739Z,78.34
2022-10-19T03:57:28.054Z,78.16
2022-10-19T03:59:55.310Z,78.23
2022-10-19T04:02:22.591Z,78.17
2022-10-19T04:04:50.066Z,78.59
2022-10-19T04:07:17.499Z,79.06
2022-10-19T04:09:44.750Z,78.88
2022-10-19T04:12:12.086Z,78.81
2022-10-19T04:14:55.878Z,78.97
2022-10-19T04:17:24.826Z,78.56
2022-10-19T04:19:52.152Z,78.89
2022-10-19T04:22:19.601Z,78.77
2022-10-19T04:24:46.813Z,78.81
2022-10-19T04:27:14.206Z,78.45
2022-10-19T04:29:41.623Z,78.81
2022-10-19T04:32:08.939Z,78.73
2022-10-19T04:34:39.196Z,78.24
2022-10-19T04:37:07.407Z,78.64
2022-10-19T04:39:34.707Z,78.26
2022-10-19T04:42:02.082Z,78.52
2022-10-19T04:44:29.344Z,78.46
2022-10-19T04:46:56.679Z,78.73
2022-10-19T04:49:24.205Z,78.80
2022-10-19T04:52:01.748Z,78.01
2022-10-19T04:54:29.201Z,78.48
2022-10-19T04:56:56.979Z,78.34
2022-10-19T04:59:25.425Z,78.49
2022-10-19T05:01:53.089Z,78.79
2022-10-19T05:04:22.494Z,78.54
2022-10-19T05:06:52.362Z,78.00
2022-10-19T05:09:20.858Z,78.08
2022-10-19T05:11:52.631Z,77.97
2022-10-19T05:14:20.587Z,78.56
2022-10-19T05:16:48.096Z,79.32
2022-10-19T05:19:16.616Z,79.10
2022-10-19T05:21:45.013Z,79.09
2022-10-19T05:24:13.767Z,78.56
2022-10-19T05:26:41.669Z,78.14
2022-10-19T05:29:13.033Z,78.23
2022-10-19T05:31:43.979Z,77.92
2022-10-19T05:34:12.223Z,77.74
2022-10-19T05:36:40.613Z,77.97
2022-10-19T05:39:25.011Z,78.22
2022-10-19T05:41:53.860Z,78.61
2022-10-19T05:44:22.256Z,78.33
2022-10-19T05:46:50.754Z,78.28
2022-10-19T05:49:20.088Z,77.84
2022-10-19T05:51:48.391Z,77.65
2022-10-19T05:54:17.274Z,78.01
2022-10-19T05:56:45.668Z,78.26
2022-10-19T05:59:19.971Z,78.09
2022-10-19T06:01:47.913Z,78.19
2022-10-19T06:06:52.219Z,77.90
2022-10-19T06:09:23.676Z,78.10
2022-10-19T06:11:51.510Z,78.20
2022-10-19T06:14:19.769Z,77.48
2022-10-19T06:16:54.023Z,77.71
2022-10-19T06:19:21.879Z,77.00
2022-10-19T06:21:49.568Z,77.27
2022-10-19T06:24:17.532Z,77.05
2022-10-19T06:26:44.982Z,77.32
2022-10-19T06:29:14.815Z,76.42
2022-10-19T06:31:42.156Z,75.87
2022-10-19T06:34:09.839Z,75.98
2022-10-19T06:36:37.158Z,75.86
2022-10-19T06:39:04.917Z,75.95
2022-10-19T06:41:32.695Z,76.11
2022-10-19T06:44:16.956Z,75.85
2022-10-19T06:46:45.105Z,75.57
2022-10-19T06:49:13.465Z,75.56
2022-10-19T06:51:43.183Z,75.44
2022-10-19T06:54:10.639Z,75.56
2022-10-19T06:56:38.712Z,75.51
2022-10-19T06:59:08.471Z,75.04
2022-10-19T07:01:39.176Z,74.60
2022-10-19T07:04:06.588Z,74.18
2022-10-19T07:06:34.193Z,74.51
2022-10-19T07:09:03.537Z,73.99
2022-10-19T07:14:40.137Z,73.35
2022-10-19T07:17:09.748Z,70.50
2022-10-19T07:19:38.045Z,64.73
2022-10-19T07:22:08.699Z,60.68
2022-10-19T07:24:37.157Z,59.44
2022-10-19T07:27:05.046Z,58.32
2022-10-19T07:29:32.736Z,57.04
2022-10-19T07:32:00.016Z,56.89
2022-10-19T07:34:29.162Z,56.50
2022-10-19T07:36:56.724Z,56.40
2022-10-19T07:39:24.666Z,55.96
2022-10-19T07:41:53.451Z,53.88
2022-10-19T07:44:20.941Z,52.75
2022-10-19T07:46:49.408Z,53.76
2022-10-19T07:49:20.233Z,53.94
2022-10-19T07:51:47.889Z,53.41
2022-10-19T07:54:15.360Z,51.69
2022-10-19T07:56:45.343Z,50.59
2022-10-19T07:59:18.026Z,51.70
2022-10-19T08:01:46.163Z,52.63
2022-10-19T08:07:01.674Z,61.87
2022-10-19T08:09:51.579Z,62.98
2022-10-19T08:12:28.573Z,63.08
2022-10-19T08:14:56.351Z,63.23
2022-10-19T08:17:38.536Z,63.58
2022-10-19T08:20:07.045Z,64.13
2022-10-19T08:22:34.983Z,64.10
2022-10-19T08:25:02.659Z,63.97
2022-10-19T08:27:30.723Z,64.42
2022-10-19T08:29:58.792Z,63.98
2022-10-19T08:32:26.506Z,64.25
2022-10-19T08:34:54.166Z,63.45
2022-10-19T08:37:39.959Z,63.08
2022-10-19T08:40:26.214Z,62.29
2022-10-19T08:43:00.761Z,62.53
2022-10-19T08:45:49.267Z,61.61
2022-10-19T08:48:27.526Z,60.97
2022-10-19T08:50:57.285Z,61.12
2022-10-19T08:53:50.359Z,61.23
2022-10-19T08:56:50.077Z,60.43
2022-10-19T08:59:39.994Z,60.54
2022-10-19T09:02:30.987Z,61.10
2022-10-19T09:05:06.251Z,61.39
2022-10-19T09:07:37.806Z,61.39
2022-10-19T09:10:15.031Z,60.36
2022-10-19T09:12:45.485Z,58.52
2022-10-19T09:15:15.604Z,58.71
2022-10-19T09:17:43.037Z,59.44
2022-10-19T09:20:44.049Z,59.76
2022-10-19T09:23:28.456Z,59.71
2022-10-19T09:25:57.312Z,58.52
2022-10-19T09:28:46.297Z,57.20
2022-10-19T09:31:20.895Z,56.55
2022-10-19T09:33:56.064Z,58.96
2022-10-19T09:36:39.252Z,59.37
2022-10-19T09:39:15.846Z,59.90
2022-10-19T09:41:57.474Z,60.81
2022-10-19T09:44:25.636Z,62.18
2022-10-19T09:47:16.618Z,62.53
2022-10-19T09:49:47.374Z,62.05
2022-10-19T09:52:38.373Z,61.55
2022-10-19T09:55:22.874Z,60.87
2022-10-19T09:58:01.541Z,58.70
2022-10-19T10:00:52.399Z,57.70
2022-10-19T10:03:41.435Z,57.42
2022-10-19T10:06:19.006Z,58.15
2022-10-19T10:08:58.974Z,57.15
2022-10-19T10:11:35.030Z,56.44
2022-10-19T10:14:11.260Z,56.87
2022-10-19T10:16:40.316Z,58.08
2022-10-19T10:19:10.740Z,58.38
2022-10-19T10:21:50.414Z,57.53
2022-10-19T10:24:19.874Z,58.03
2022-10-19T10:26:49.133Z,58.93
2022-10-19T10:29:23.474Z,57.31
2022-10-19T10:31:57.281Z,56.25
2022-10-19T10:34:51.249Z,55.66
2022-10-19T10:37:22.994Z,54.49
2022-10-19T10:39:55.811Z,54.20
2022-10-19T10:42:37.621Z,55.69
2022-10-19T10:45:06.090Z,57.39
2022-10-19T10:47:34.286Z,58.04
2022-10-19T10:50:06.588Z,57.68
2022-10-19T10:52:36.310Z,57.62
2022-10-19T10:55:10.648Z,58.57
2022-10-19T10:57:40.895Z,59.14
2022-10-19T11:00:19.270Z,59.15
2022-10-19T11:02:59.022Z,59.26
2022-10-19T11:05:35.193Z,60.44
2022-10-19T11:08:23.690Z,59.68
2022-10-19T11:11:21.788Z,60.09
2022-10-19T11:14:01.547Z,59.92
2022-10-19T11:16:39.057Z,59.48
2022-10-19T11:19:29.795Z,58.44
2022-10-19T11:22:22.350Z,56.74
2022-10-19T11:25:14.076Z,58.10
2022-10-19T11:28:16.358Z,56.17
2022-10-19T11:31:09.009Z,56.27
2022-10-19T11:33:56.017Z,55.43
2022-10-19T11:36:32.903Z,57.00
2022-10-19T11:39:19.332Z,57.36
2022-10-19T11:42:23.167Z,56.91
2022-10-19T11:44:54.516Z,57.35
2022-10-19T11:47:34.478Z,58.75
2022-10-19T11:50:14.585Z,58.64
2022-10-19T11:52:51.784Z,56.91
2022-10-19T11:55:24.007Z,57.54
2022-10-19T11:57:59.132Z,57.05
2022-10-19T12:00:38.573Z,57.20
2022-10-19T12:03:10.152Z,57.32
2022-10-19T12:06:09.696Z,56.83
2022-10-19T12:08:48.271Z,56.95
2022-10-19T12:11:45.650Z,57.18
2022-10-19T12:14:16.553Z,56.47
2022-10-19T12:16:52.316Z,58.74
2022-10-19T12:19:28.335Z,55.83
2022-10-19T12:22:00.746Z,55.14
2022-10-19T12:24:29.446Z,55.99
2022-10-19T12:26:57.247Z,56.61
2022-10-19T12:29:27.449Z,56.17
2022-10-19T12:31:56.374Z,57.32
2022-10-19T12:34:42.099Z,56.56
2022-10-19T12:37:19.635Z,58.15
2022-10-19T12:40:06.934Z,57.61
2022-10-19T12:42:54.249Z,56.89
2022-10-19T12:45:31.553Z,57.13
2022-10-19T12:48:08.233Z,56.88
2022-10-19T12:50:54.003Z,57.12
2022-10-19T12:56:10.414Z,57.28
2022-10-19T12:58:47.691Z,57.08
2022-10-19T13:01:22.844Z,57.15
2022-10-19T13:03:54.300Z,56.47
2022-10-19T13:06:24.824Z,56.90
2022-10-19T13:09:06.736Z,57.07
2022-10-19T13:11:38.578Z,57.21
2022-10-19T13:14:09.002Z,57.42
2022-10-19T13:16:36.412Z,56.98
2022-10-19T13:19:13.823Z,57.38
2022-10-19T13:21:47.365Z,57.32
2022-10-19T13:24:26.491Z,57.43
2022-10-19T13:27:00.182Z,57.51
2022-10-19T13:29:29.044Z,58.24
2022-10-19T13:31:56.362Z,57.70
2022-10-19T13:34:24.324Z,57.85
2022-10-19T13:37:01.172Z,58.59
2022-10-19T13:39:28.483Z,58.63
2022-10-19T13:41:57.246Z,58.30
2022-10-19T13:44:26.385Z,58.12
2022-10-19T13:47:12.621Z,58.21
2022-10-19T13:49:41.612Z,58.84
2022-10-19T13:52:15.044Z,59.23
2022-10-19T13:55:08.776Z,59.74
2022-10-19T13:57:55.328Z,59.87
2022-10-19T14:00:26.144Z,59.95
2022-10-19T14:03:19.447Z,59.89
2022-10-19T14:06:22.278Z,59.58
2022-10-19T14:08:58.607Z,59.62
2022-10-19T14:11:34.196Z,60.15
2022-10-19T14:14:10.760Z,60.05
2022-10-19T14:17:14.805Z,59.75
2022-10-19T14:19:51.503Z,59.32
2022-10-19T14:22:29.982Z,59.25
2022-10-19T14:25:04.894Z,59.62
2022-10-19T14:27:33.105Z,59.56
2022-10-19T14:30:00.728Z,59.75
2022-10-19T14:32:29.150Z,59.97
2022-10-19T14:35:01.440Z,60.12
2022-10-19T14:37:29.101Z,60.57
2022-10-19T14:40:26.538Z,60.64
2022-10-19T14:42:57.175Z,61.02
2022-10-19T14:45:31.600Z,61.50
2022-10-19T14:48:04.124Z,62.33
2022-10-19T14:50:42.511Z,61.80
2022-10-19T14:53:56.914Z,61.47
2022-10-19T14:56:29.260Z,61.85
2022-10-19T14:59:05.492Z,61.95
2022-10-19T15:01:33.702Z,61.36
2022-10-19T15:04:01.544Z,61.09
2022-10-19T15:06:32.917Z,60.81
2022-10-19T15:09:05.144Z,61.42
2022-10-19T15:11:41.929Z,62.19
2022-10-19T15:14:12.142Z,61.29
2022-10-19T15:16:39.489Z,60.82
2022-10-19T15:19:11.417Z,60.30
2022-10-19T15:21:38.999Z,60.95
2022-10-19T15:24:15.954Z,61.00
2022-10-19T15:27:01.680Z,61.87
2022-10-19T15:29:36.014Z,62.22
2022-10-19T15:32:14.186Z,62.27
2022-10-19T15:34:41.733Z,62.65
2022-10-19T15:37:21.373Z,63.04
2022-10-19T15:39:49.172Z,63.87
2022-10-19T15:42:39.141Z,62.99
2022-10-19T15:45:30.691Z,63.21
2022-10-19T15:48:25.823Z,63.27
2022-10-19T15:50:53.399Z,62.88
2022-10-19T15:53:21.584Z,62.52
2022-10-19T15:55:49.290Z,63.17
2022-10-19T15:58:17.250Z,63.15
2022-10-19T16:00:44.597Z,60.67
2022-10-19T16:03:12.047Z,60.46
2022-10-19T16:05:39.576Z,61.16
2022-10-19T16:08:10.140Z,60.90
2022-10-19T16:10:39.819Z,60.13
2022-10-19T16:13:07.230Z,60.10
2022-10-19T16:15:34.584Z,60.05
2022-10-19T16:18:01.895Z,60.12
2022-10-19T16:20:29.853Z,60.49
2022-10-19T16:22:57.525Z,60.78
2022-10-19T16:25:24.990Z,61.34
2022-10-19T16:27:52.619Z,61.70
2022-10-19T16:30:20.070Z,61.77
2022-10-19T16:32:50.708Z,61.93
2022-10-19T16:35:18.019Z,61.80
2022-10-19T16:37:45.603Z,61.45
2022-10-19T16:40:13.193Z,61.71
2022-10-19T16:42:40.705Z,61.54
2022-10-19T16:45:09.191Z,62.06
2022-10-19T16:47:36.657Z,61.98
2022-10-19T16:50:06.274Z,62.25
2022-10-19T16:52:33.948Z,62.35
2022-10-19T16:55:01.684Z,61.92
2022-10-19T16:57:29.018Z,61.61
2022-10-19T16:59:56.469Z,62.00
2022-10-19T17:02:23.747Z,61.72
2022-10-19T17:04:51.172Z,61.88
2022-10-19T17:07:18.469Z,62.05
2022-10-19T17:09:46.696Z,61.33
2022-10-19T17:12:15.534Z,61.41
2022-10-19T17:14:43.336Z,61.42
2022-10-19T17:17:10.764Z,61.37
2022-10-19T17:19:38.232Z,61.49
2022-10-19T17:22:05.754Z,61.72
2022-10-19T17:24:33.206Z,61.76
2022-10-19T17:27:01.171Z,61.87
2022-10-19T17:29:28.626Z,61.92
2022-10-19T17:31:55.951Z,62.28
2022-10-19T17:34:23.455Z,61.96
2022-10-19T17:36:50.801Z,61.67
2022-10-19T17:39:21.415Z,61.72
2022-10-19T17:41:50.841Z,61.62
2022-10-19T17:44:18.978Z,61.98
2022-10-19T17:46:46.357Z,61.90
2022-10-19T17:49:15.056Z,62.18
2022-10-19T17:51:42.480Z,61.70
2022-10-19T17:54:11.801Z,62.01
2022-10-19T17:56:39.571Z,62.62
2022-10-19T17:59:09.178Z,62.85
2022-10-19T18:01:37.447Z,62.90
2022-10-19T18:04:04.966Z,62.59
2022-10-19T18:06:33.687Z,62.65
2022-10-19T18:09:01.926Z,62.76
2022-10-19T18:11:38.674Z,62.52
2022-10-19T18:14:07.930Z,62.24
2022-10-19T18:16:37.291Z,62.54
2022-10-19T18:19:04.701Z,62.64
2022-10-19T18:21:36.207Z,62.73
2022-10-19T18:24:03.743Z,62.56
2022-10-19T18:26:32.138Z,63.17
2022-10-19T18:29:00.679Z,63.51
2022-10-19T18:31:29.941Z,63.63
2022-10-19T18:33:58.149Z,64.09
2022-10-19T18:36:25.379Z,63.42
2022-10-19T18:38:57.226Z,62.87
2022-10-19T18:41:24.630Z,62.55
2022-10-19T18:43:54.060Z,61.85
2022-10-19T18:46:22.063Z,61.05
2022-10-19T18:48:50.001Z,60.36
2022-10-19T18:51:17.955Z,59.14
2022-10-19T18:53:45.321Z,58.03
2022-10-19T18:56:13.950Z,58.40
2022-10-19T18:58:41.499Z,58.33
2022-10-19T19:01:13.652Z,58.03
2022-10-19T19:03:44.708Z,58.64
2022-10-19T19:06:17.261Z,58.49
2022-10-19T19:08:47.404Z,58.70
2022-10-19T19:11:22.211Z,58.78
2022-10-19T19:13:50.214Z,58.70
2022-10-19T19:16:17.721Z,58.97
2022-10-19T19:18:45.099Z,59.18
2022-10-19T19:21:20.560Z,59.95
2022-10-19T19:23:48.124Z,59.82
2022-10-19T19:26:15.512Z,59.67
2022-10-19T19:28:44.220Z,59.95
2022-10-19T19:31:15.497Z,59.98
2022-10-19T19:33:44.234Z,60.40
2022-10-19T19:36:12.062Z,60.26
2022-10-19T19:38:39.607Z,60.20
2022-10-19T19:41:13.545Z,59.98
2022-10-19T19:43:41.289Z,59.61
2022-10-19T19:46:13.070Z,60.02
2022-10-19T19:48:41.914Z,60.12
2022-10-19T19:51:10.352Z,60.00
2022-10-19T19:53:38.068Z,60.01
2022-10-19T19:56:09.670Z,60.40
2022-10-19T19:58:36.998Z,60.74
2022-10-19T20:01:12.459Z,60.49
2022-10-19T20:03:41.237Z,60.68
2022-10-19T20:06:08.457Z,60.51
2022-10-19T20:08:36.979Z,60.87
2022-10-19T20:11:09.377Z,60.46
2022-10-19T20:13:36.790Z,60.83
2022-10-19T20:16:29.217Z,60.91
2022-10-19T20:19:00.670Z,60.72
2022-10-19T20:21:28.018Z,61.19
2022-10-19T20:23:55.239Z,60.87
2022-10-19T20:26:23.644Z,60.79
2022-10-19T20:28:50.913Z,60.77
2022-10-19T20:31:18.455Z,61.50
2022-10-19T20:33:47.457Z,61.38
2022-10-19T20:36:22.728Z,61.49
2022-10-19T20:38:54.686Z,61.36
2022-10-19T20:41:22.665Z,60.86
2022-10-19T20:43:50.190Z,61.85
2022-10-19T20:46:19.021Z,61.94
2022-10-19T20:48:46.393Z,62.19
2022-10-19T20:51:18.364Z,62.55
2022-10-19T20:53:46.744Z,62.02
2022-10-19T20:56:15.447Z,61.35
2022-10-19T20:58:44.013Z,61.44
2022-10-19T21:01:16.268Z,61.41
2022-10-19T21:03:52.809Z,61.05
2022-10-19T21:06:20.556Z,61.56
2022-10-19T21:08:47.878Z,61.68
2022-10-19T21:11:20.215Z,61.69
2022-10-19T21:13:47.779Z,61.43
2022-10-19T21:16:16.796Z,61.50
2022-10-19T21:18:44.689Z,61.67
2022-10-19T21:21:19.675Z,61.37
2022-10-19T21:23:47.955Z,61.45
2022-10-19T21:26:15.331Z,61.98
2022-10-19T21:28:49.653Z,61.57
2022-10-19T21:31:17.180Z,61.75
2022-10-19T21:33:44.462Z,61.50
2022-10-19T21:36:12.394Z,61.45
2022-10-19T21:38:39.729Z,61.70
2022-10-19T21:41:08.722Z,61.96
2022-10-19T21:43:35.969Z,61.81
2022-10-19T21:46:08.231Z,61.35
2022-10-19T21:48:35.577Z,61.65
2022-10-19T21:51:20.887Z,61.95
2022-10-19T21:53:48.367Z,61.37
2022-10-19T21:56:15.711Z,61.05
2022-10-19T21:58:47.201Z,61.65
2022-10-19T22:01:14.791Z,62.10
2022-10-19T22:03:42.103Z,62.68
2022-10-19T22:06:09.404Z,62.18
2022-10-19T22:08:36.798Z,61.75
2022-10-19T22:11:09.154Z,61.32
2022-10-19T22:13:36.577Z,61.63
2022-10-19T22:16:07.009Z,61.86
2022-10-19T22:18:34.568Z,62.24
2022-10-19T22:21:05.480Z,61.53
2022-10-19T22:23:32.792Z,62.18
2022-10-19T22:26:00.108Z,61.89
2022-10-19T22:28:27.665Z,62.29
2022-10-19T22:30:55.736Z,62.01
2022-10-19T22:33:23.565Z,62.11
2022-10-19T22:35:57.942Z,62.93
2022-10-19T22:38:25.545Z,62.83
2022-10-19T22:40:52.850Z,63.57
2022-10-19T22:43:20.162Z,63.66
2022-10-19T22:45:50.545Z,63.72
2022-10-19T22:48:18.214Z,63.77
2022-10-19T22:50:45.885Z,63.74
2022-10-19T22:53:13.236Z,63.66
2022-10-19T22:55:40.749Z,64.04
2022-10-19T22:58:08.414Z,64.39
2022-10-19T23:00:36.250Z,64.37
2022-10-19T23:03:03.681Z,64.55
2022-10-19T23:05:30.974Z,64.35
2022-10-19T23:07:58.308Z,64.36
2022-10-19T23:10:25.617Z,64.07
2022-10-19T23:12:53.263Z,64.43
2022-10-19T23:15:21.072Z,64.30
2022-10-19T23:17:48.427Z,64.03
2022-10-19T23:20:15.774Z,63.77
2022-10-19T23:22:43.058Z,63.72
2022-10-19T23:25:10.328Z,63.82
2022-10-19T23:27:37.933Z,63.87
2022-10-19T23:30:05.902Z,64.07
2022-10-19T23:32:33.180Z,64.06
2022-10-19T23:35:00.439Z,64.12
2022-10-19T23:37:27.776Z,64.36
2022-10-19T23:39:54.987Z,64.92
2022-10-19T23:42:22.308Z,65.13
2022-10-19T23:44:49.577Z,65.39
2022-10-19T23:47:16.884Z,65.13
2022-10-19T23:49:44.077Z,64.83
2022-10-19T23:52:11.429Z,64.39
2022-10-19T23:54:38.693Z,64.51
2022-10-19T23:57:06.097Z,64.93
2022-10-19T23:59:33.338Z,65.14
